createdAt,value
2018-03-01T00:01:27.867Z,28.80
2018-03-01T00:03:56.143Z,30.80
2018-03-01T00:06:24.419Z,27.95
2018-03-01T00:08:52.683Z,28.83
2018-03-01T00:11:20.951Z,28.52
2018-03-01T00:13:48.453Z,29.75
2018-03-01T00:16:15.972Z,29.67
2018-03-01T00:18:43.470Z,29.98
2018-03-01T00:21:10.975Z,27.65
2018-03-01T00:23:38.478Z,26.20
2018-03-01T00:26:05.983Z,24.87
2018-03-01T00:28:33.482Z,29.35
2018-03-01T00:31:01.760Z,28.33
2018-03-01T00:33:30.037Z,28.48
2018-03-01T00:35:58.311Z,28.38
2018-03-01T00:38:26.613Z,29.77
2018-03-01T00:40:54.126Z,28.50
2018-03-01T00:43:21.634Z,28.27
2018-03-01T00:45:49.144Z,27.25
2018-03-01T00:48:16.663Z,29.02
2018-03-01T00:50:44.183Z,28.25
2018-03-01T00:53:12.447Z,28.65
2018-03-01T00:55:40.715Z,26.10
2018-03-01T00:58:08.980Z,27.73
2018-03-01T01:00:36.484Z,27.50
2018-03-01T01:03:04.019Z,28.02
2018-03-01T01:05:32.288Z,28.27
2018-03-01T01:08:00.576Z,28.02
2018-03-01T01:10:28.869Z,26.17
2018-03-01T01:12:56.383Z,27.37
2018-03-01T01:15:24.656Z,26.73
2018-03-01T01:17:53.667Z,26.85
2018-03-01T01:20:21.951Z,28.02
2018-03-01T01:22:50.228Z,27.60
2018-03-01T01:25:18.499Z,28.45
2018-03-01T01:27:46.772Z,29.42
2018-03-01T01:30:15.047Z,27.65
2018-03-01T01:32:42.567Z,27.75
2018-03-01T01:35:10.075Z,31.50
2018-03-01T01:37:38.344Z,31.08
2018-03-01T01:40:06.607Z,28.95
2018-03-01T01:42:34.127Z,27.83
2018-03-01T01:45:01.654Z,31.73
2018-03-01T01:47:29.923Z,30.88
2018-03-01T01:49:58.210Z,30.33
2018-03-01T01:52:26.475Z,29.20
2018-03-01T01:54:54.742Z,31.30
2018-03-01T01:57:23.008Z,29.70
2018-03-01T01:59:50.523Z,29.37
2018-03-01T02:02:18.040Z,29.40
2018-03-01T02:04:46.315Z,31.50
2018-03-01T02:07:14.587Z,29.37
2018-03-01T02:09:42.103Z,28.65
2018-03-01T02:12:09.607Z,28.48
2018-03-01T02:14:37.887Z,28.10
2018-03-01T02:17:06.148Z,27.92
2018-03-01T02:19:33.655Z,27.17
2018-03-01T02:22:01.154Z,30.35
2018-03-01T02:24:28.658Z,28.30
2018-03-01T02:26:56.164Z,27.52
2018-03-01T02:29:23.663Z,28.90
2018-03-01T02:31:51.941Z,27.15
2018-03-01T02:34:20.236Z,28.05
2018-03-01T02:36:47.738Z,24.37
2018-03-01T02:39:15.257Z,25.62
2018-03-01T02:41:42.780Z,21.65
2018-03-01T02:44:11.056Z,23.58
2018-03-01T02:46:39.333Z,22.50
2018-03-01T02:49:07.627Z,21.60
2018-03-01T02:51:35.138Z,22.40
2018-03-01T02:54:02.681Z,22.62
2018-03-01T02:56:30.182Z,21.33
2018-03-01T02:58:58.458Z,20.55
2018-03-01T03:01:26.735Z,20.62
2018-03-01T03:03:55.007Z,21.10
2018-03-01T03:06:22.526Z,21.90
2018-03-01T03:08:50.027Z,20.17
2018-03-01T03:11:17.543Z,19.45
2018-03-01T03:13:45.058Z,22.40
2018-03-01T03:16:13.318Z,21.87
2018-03-01T03:18:40.817Z,20.58
2018-03-01T03:21:08.323Z,20.58
2018-03-01T03:23:35.823Z,20.70
2018-03-01T03:26:03.327Z,20.90
2018-03-01T03:28:30.831Z,21.70
2018-03-01T03:30:58.347Z,20.70
2018-03-01T03:33:25.848Z,21.48
2018-03-01T03:35:53.358Z,21.95
2018-03-01T03:38:20.859Z,21.25
2018-03-01T03:40:49.122Z,20.25
2018-03-01T03:43:16.642Z,24.10
2018-03-01T03:45:44.139Z,21.00
2018-03-01T03:48:12.452Z,22.98
2018-03-01T03:50:39.955Z,23.65
2018-03-01T03:53:07.468Z,23.50
2018-03-01T03:55:34.984Z,23.52
2018-03-01T03:58:02.483Z,24.55
2018-03-01T04:00:30.050Z,22.98
2018-03-01T04:02:57.559Z,22.98
2018-03-01T04:05:25.061Z,23.95
2018-03-01T04:07:52.558Z,22.45
2018-03-01T04:10:20.058Z,23.73
2018-03-01T04:12:48.318Z,23.83
2018-03-01T04:15:16.590Z,24.52
2018-03-01T04:17:44.091Z,24.02
2018-03-01T04:20:11.611Z,21.58
2018-03-01T04:22:39.887Z,24.85
2018-03-01T04:25:08.159Z,24.77
2018-03-01T04:27:35.657Z,25.35
2018-03-01T04:30:03.155Z,21.40
2018-03-01T04:32:30.668Z,22.48
2018-03-01T04:34:58.175Z,22.87
2018-03-01T04:37:25.694Z,23.85
2018-03-01T04:39:53.228Z,21.52
2018-03-01T04:42:21.498Z,23.85
2018-03-01T04:44:49.799Z,24.33
2018-03-01T04:47:17.303Z,22.10
2018-03-01T04:49:44.807Z,25.40
2018-03-01T04:52:12.307Z,24.75
2018-03-01T04:54:39.822Z,23.25
2018-03-01T04:57:08.091Z,23.67
2018-03-01T04:59:36.356Z,23.33
2018-03-01T05:02:04.639Z,25.55
2018-03-01T05:04:32.910Z,25.40
2018-03-01T05:07:01.172Z,24.73
2018-03-01T05:09:28.667Z,25.30
2018-03-01T05:11:56.179Z,24.65
2018-03-01T05:14:24.446Z,23.67
2018-03-01T05:16:51.946Z,23.33
2018-03-01T05:19:20.219Z,25.10
2018-03-01T05:21:48.486Z,25.40
2018-03-01T05:24:16.763Z,23.62
2018-03-01T05:26:45.027Z,24.77
2018-03-01T05:29:12.544Z,25.62
2018-03-01T05:31:40.046Z,22.75
2018-03-01T05:34:07.552Z,25.02
2018-03-01T05:36:35.062Z,23.87
2018-03-01T05:39:02.575Z,26.00
2018-03-01T05:41:30.075Z,23.60
2018-03-01T05:43:59.079Z,24.37
2018-03-01T05:46:26.579Z,25.45
2018-03-01T05:48:54.079Z,23.35
2018-03-01T05:51:21.594Z,23.83
2018-03-01T05:53:49.095Z,23.70
2018-03-01T05:56:16.610Z,24.75
2018-03-01T05:58:44.116Z,24.50
2018-03-01T06:01:11.611Z,23.70
2018-03-01T06:03:39.112Z,24.40
2018-03-01T06:06:06.607Z,25.30
2018-03-01T06:08:34.886Z,24.63
2018-03-01T06:11:03.156Z,26.15
2018-03-01T06:13:30.651Z,23.65
2018-03-01T06:15:58.191Z,24.65
2018-03-01T06:18:26.451Z,25.92
2018-03-01T06:20:53.971Z,23.42
2018-03-01T06:23:21.471Z,24.63
2018-03-01T06:25:49.743Z,24.55
2018-03-01T06:28:17.241Z,27.10
2018-03-01T06:30:44.758Z,27.52
2018-03-01T06:33:12.262Z,25.45
2018-03-01T06:35:39.768Z,28.20
2018-03-01T06:38:07.284Z,27.05
2018-03-01T06:40:34.796Z,24.37
2018-03-01T06:43:03.066Z,25.85
2018-03-01T06:45:31.359Z,28.30
2018-03-01T06:47:59.623Z,30.12
2018-03-01T06:50:27.135Z,28.02
2018-03-01T06:52:55.417Z,28.60
2018-03-01T06:55:22.923Z,28.12
2018-03-01T06:57:51.192Z,31.10
2018-03-01T07:00:18.711Z,31.02
2018-03-01T07:02:46.211Z,28.80
2018-03-01T07:05:14.474Z,24.75
2018-03-01T07:07:41.987Z,27.02
2018-03-01T07:10:09.532Z,29.17
2018-03-01T07:12:37.035Z,28.90
2018-03-01T07:15:04.561Z,28.55
2018-03-01T07:17:32.062Z,28.85
2018-03-01T07:19:59.579Z,31.23
2018-03-01T07:22:27.117Z,31.67
2018-03-01T07:24:55.398Z,27.75
2018-03-01T07:27:22.926Z,30.05
2018-03-01T07:29:50.432Z,30.15
2018-03-01T07:32:17.943Z,30.17
2018-03-01T07:34:45.443Z,27.00
2018-03-01T07:37:12.960Z,28.35
2018-03-01T07:39:40.468Z,28.77
2018-03-01T07:42:07.991Z,27.52
2018-03-01T07:44:36.256Z,28.73
2018-03-01T07:47:04.527Z,28.45
2018-03-01T07:49:32.035Z,29.23
2018-03-01T07:51:59.548Z,29.40
2018-03-01T07:54:27.054Z,26.30
2018-03-01T07:56:54.560Z,26.30
2018-03-01T07:59:22.087Z,28.48
2018-03-01T08:01:49.582Z,28.20
2018-03-01T08:04:17.115Z,29.25
2018-03-01T08:06:44.611Z,28.87
2018-03-01T08:09:12.877Z,28.48
2018-03-01T08:11:40.395Z,31.77
2018-03-01T08:14:07.907Z,28.60
2018-03-01T08:16:36.188Z,27.10
2018-03-01T08:19:04.456Z,28.35
2018-03-01T08:21:32.750Z,29.27
2018-03-01T08:24:00.263Z,30.42
2018-03-01T08:26:27.777Z,26.48
2018-03-01T08:28:55.282Z,27.25
2018-03-01T08:31:22.939Z,29.08
2018-03-01T08:33:50.439Z,27.45
2018-03-01T08:36:18.719Z,25.58
2018-03-01T08:38:46.235Z,27.27
2018-03-01T08:41:13.763Z,28.52
2018-03-01T08:43:41.264Z,27.27
2018-03-01T08:46:08.775Z,28.42
2018-03-01T08:48:36.331Z,26.40
2018-03-01T08:51:03.835Z,25.02
2018-03-01T08:53:31.347Z,28.60
2018-03-01T08:55:58.909Z,29.08
2018-03-01T08:58:26.415Z,29.98
2018-03-01T09:00:54.108Z,30.00
2018-03-01T09:03:21.634Z,30.35
2018-03-01T09:05:49.145Z,29.02
2018-03-01T09:08:16.643Z,28.70
2018-03-01T09:10:44.159Z,30.62
2018-03-01T09:13:11.691Z,29.95
2018-03-01T09:15:39.951Z,31.70
2018-03-01T09:18:07.559Z,30.60
2018-03-01T09:20:35.055Z,28.45
2018-03-01T09:23:02.576Z,29.08
2018-03-01T09:25:30.102Z,30.05
2018-03-01T09:27:58.371Z,31.95
2018-03-01T09:30:26.635Z,30.90
2018-03-01T09:32:54.144Z,32.55
2018-03-01T09:35:21.664Z,30.90
2018-03-01T09:37:50.047Z,30.60
2018-03-01T09:40:18.347Z,30.60
2018-03-01T09:42:45.891Z,30.75
2018-03-01T09:45:14.156Z,30.77
2018-03-01T09:47:42.423Z,29.05
2018-03-01T09:50:09.930Z,30.40
2018-03-01T09:52:37.441Z,30.70
2018-03-01T09:55:04.946Z,31.75
2018-03-01T09:57:32.475Z,31.25
2018-03-01T10:00:00.755Z,33.05
2018-03-01T10:02:29.025Z,33.58
2018-03-01T10:04:57.295Z,32.30
2018-03-01T10:07:24.808Z,30.40
2018-03-01T10:09:52.322Z,33.10
2018-03-01T10:12:20.591Z,33.90
2018-03-01T10:14:48.875Z,33.30
2018-03-01T10:17:17.182Z,33.15
2018-03-01T10:19:44.680Z,35.10
2018-03-01T10:22:12.176Z,34.30
2018-03-01T10:24:40.439Z,32.67
2018-03-01T10:27:08.699Z,36.22
2018-03-01T10:29:36.227Z,33.17
2018-03-01T10:32:03.746Z,33.40
2018-03-01T10:34:32.012Z,33.63
2018-03-01T10:37:00.287Z,35.33
2018-03-01T10:39:28.552Z,33.08
2018-03-01T10:41:56.836Z,35.35
2018-03-01T10:44:25.112Z,33.13
2018-03-01T10:46:53.384Z,32.88
2018-03-01T10:49:20.887Z,34.53
2018-03-01T10:51:48.412Z,34.45
2018-03-01T10:54:16.686Z,34.88
2018-03-01T10:56:44.964Z,36.63
2018-03-01T10:59:13.235Z,35.58
2018-03-01T11:01:56.379Z,35.25
2018-03-01T11:04:24.816Z,32.25
2018-03-01T11:06:52.331Z,35.65
2018-03-01T11:09:19.848Z,36.28
2018-03-01T11:11:47.344Z,35.55
2018-03-01T11:14:14.859Z,35.55
2018-03-01T11:16:42.379Z,37.22
2018-03-01T11:19:09.876Z,36.55
2018-03-01T11:21:37.390Z,34.53
2018-03-01T11:24:04.899Z,36.60
2018-03-01T11:26:32.452Z,34.25
2018-03-01T11:28:59.950Z,36.65
2018-03-01T11:31:27.449Z,35.17
2018-03-01T11:33:54.977Z,34.08
2018-03-01T11:36:22.480Z,28.73
2018-03-01T11:38:49.982Z,30.62
2018-03-01T11:41:17.496Z,31.62
2018-03-01T11:43:44.995Z,31.35
2018-03-01T11:46:12.572Z,30.05
2018-03-01T11:48:40.076Z,29.77
2018-03-01T11:51:07.572Z,30.08
2018-03-01T11:53:35.091Z,30.17
2018-03-01T11:56:02.592Z,30.25
2018-03-01T11:58:30.099Z,30.95
2018-03-01T12:00:57.631Z,31.23
2018-03-01T12:03:25.124Z,29.80
2018-03-01T12:05:52.628Z,29.17
2018-03-01T12:08:20.127Z,30.90
2018-03-01T12:10:47.623Z,27.40
2018-03-01T12:13:15.912Z,31.80
2018-03-01T12:15:44.175Z,32.50
2018-03-01T12:18:12.456Z,30.17
2018-03-01T12:20:40.719Z,31.75
2018-03-01T12:23:08.220Z,29.63
2018-03-01T12:25:35.735Z,30.27
2018-03-01T12:28:03.251Z,30.20
2018-03-01T12:30:30.747Z,31.50
2018-03-01T12:32:58.258Z,28.77
2018-03-01T12:35:25.783Z,29.00
2018-03-01T12:37:54.063Z,30.58
2018-03-01T12:40:22.342Z,28.83
2018-03-01T12:42:50.603Z,31.85
2018-03-01T12:45:18.932Z,31.48
2018-03-01T12:47:46.399Z,30.05
2018-03-01T12:50:13.896Z,31.20
2018-03-01T12:52:42.183Z,30.08
2018-03-01T12:55:10.457Z,29.20
2018-03-01T12:57:38.722Z,33.17
2018-03-01T13:00:06.988Z,30.30
2018-03-01T13:02:34.487Z,29.95
2018-03-01T13:05:02.812Z,28.10
2018-03-01T13:07:30.310Z,30.95
2018-03-01T13:09:58.572Z,29.00
2018-03-01T13:12:26.843Z,29.85
2018-03-01T13:14:54.360Z,29.58
2018-03-01T13:17:21.863Z,29.02
2018-03-01T13:19:50.135Z,30.27
2018-03-01T13:22:17.639Z,28.33
2018-03-01T13:24:45.140Z,28.45
2018-03-01T13:27:12.635Z,28.10
2018-03-01T13:29:41.060Z,27.02
2018-03-01T13:32:10.207Z,27.33
2018-03-01T13:48:08.575Z,26.23
2018-03-01T13:50:36.834Z,25.30
2018-03-01T13:53:04.335Z,27.80
2018-03-01T13:55:31.846Z,27.90
2018-03-01T13:57:59.344Z,27.55
2018-03-01T14:00:26.843Z,28.50
2018-03-01T14:02:54.343Z,26.25
2018-03-01T14:05:22.612Z,27.58
2018-03-01T14:07:59.432Z,26.33
2018-03-01T14:10:26.959Z,25.42
2018-03-01T14:12:56.272Z,24.27
2018-03-01T14:15:23.767Z,26.00
2018-03-01T14:18:09.143Z,25.80
2018-03-01T14:20:39.540Z,25.42
2018-03-01T14:23:14.711Z,26.60
2018-03-01T14:25:42.235Z,25.70
2018-03-01T14:28:15.429Z,27.95
2018-03-01T14:30:42.935Z,28.08
2018-03-01T14:33:10.436Z,28.25
2018-03-01T14:35:37.932Z,27.23
2018-03-01T14:38:05.452Z,27.05
2018-03-01T14:40:34.829Z,25.85
2018-03-01T14:43:03.093Z,27.13
2018-03-01T14:45:31.417Z,27.23
2018-03-01T14:47:58.929Z,23.83
2018-03-01T14:50:26.428Z,26.67
2018-03-01T14:52:53.944Z,26.08
2018-03-01T14:55:21.445Z,27.33
2018-03-01T14:57:48.940Z,28.10
2018-03-01T15:00:16.436Z,25.33
2018-03-01T15:02:44.712Z,25.95
2018-03-01T15:05:12.980Z,24.55
2018-03-01T15:07:40.479Z,28.23
2018-03-01T15:10:07.985Z,26.95
2018-03-01T15:12:35.495Z,26.85
2018-03-01T15:15:02.996Z,24.98
2018-03-01T15:17:30.523Z,25.80
2018-03-01T15:19:58.039Z,27.95
2018-03-01T15:22:26.308Z,26.05
2018-03-01T15:24:54.588Z,25.00
2018-03-01T15:27:22.900Z,26.30
2018-03-01T15:29:50.415Z,28.40
2018-03-01T15:32:17.919Z,27.48
2018-03-01T15:34:45.415Z,27.95
2018-03-01T15:37:12.929Z,30.45
2018-03-01T15:39:40.432Z,29.27
2018-03-01T15:42:07.931Z,26.70
2018-03-01T15:44:36.215Z,27.80
2018-03-01T15:47:03.728Z,28.33
2018-03-01T15:49:31.289Z,29.15
2018-03-01T15:51:58.777Z,28.48
2018-03-01T15:54:27.056Z,30.30
2018-03-01T15:56:55.326Z,28.95
2018-03-01T15:59:23.587Z,26.60
2018-03-01T16:01:51.096Z,28.48
2018-03-01T16:04:19.355Z,29.42
2018-03-01T16:06:46.855Z,28.40
2018-03-01T16:09:14.359Z,30.00
2018-03-01T16:11:42.636Z,28.75
2018-03-01T16:14:10.928Z,26.42
2018-03-01T16:16:38.427Z,26.05
2018-03-01T16:19:05.924Z,28.45
2018-03-01T16:21:34.183Z,28.50
2018-03-01T16:24:01.695Z,29.33
2018-03-01T16:26:29.195Z,27.90
2018-03-01T16:28:57.523Z,27.85
2018-03-01T16:31:25.029Z,31.02
2018-03-01T16:33:52.531Z,30.05
2018-03-01T16:36:20.031Z,29.77
2018-03-01T16:38:47.539Z,29.40
2018-03-01T16:41:15.047Z,32.17
2018-03-01T16:43:42.572Z,30.02
2018-03-01T16:46:10.087Z,28.98
2018-03-01T16:48:37.583Z,29.30
2018-03-01T16:51:05.100Z,29.42
2018-03-01T16:53:32.624Z,27.48
2018-03-01T16:56:00.140Z,28.95
2018-03-01T16:58:28.400Z,29.40
2018-03-01T17:00:55.899Z,29.80
2018-03-01T17:03:23.395Z,28.33
2018-03-01T17:05:50.903Z,31.27
2018-03-01T17:08:18.411Z,31.33
2018-03-01T17:10:45.915Z,29.50
2018-03-01T17:13:14.191Z,29.85
2018-03-01T17:15:42.459Z,29.10
2018-03-01T17:18:10.718Z,30.10
2018-03-01T17:20:38.228Z,28.25
2018-03-01T17:23:05.723Z,28.60
2018-03-01T17:25:33.237Z,28.67
2018-03-01T17:28:00.745Z,29.10
2018-03-01T17:30:28.244Z,30.23
2018-03-01T17:32:55.741Z,32.63
2018-03-01T17:35:23.235Z,31.50
2018-03-01T17:37:51.520Z,30.45
2018-03-01T17:40:19.824Z,31.40
2018-03-01T17:42:47.355Z,30.65
2018-03-01T17:45:15.658Z,31.30
2018-03-01T17:47:43.154Z,31.12
2018-03-01T17:50:10.647Z,28.83
2018-03-01T17:52:38.914Z,31.55
2018-03-01T17:55:07.180Z,32.17
2018-03-01T17:57:36.201Z,30.65
2018-03-01T18:00:04.463Z,29.20
2018-03-01T18:02:32.735Z,30.83
2018-03-01T18:05:01.019Z,28.62
2018-03-01T18:07:29.288Z,31.60
2018-03-01T18:09:57.552Z,31.90
2018-03-01T18:12:25.058Z,30.02
2018-03-01T18:14:52.556Z,31.12
2018-03-01T18:17:20.072Z,31.55
2018-03-01T18:19:47.599Z,29.02
2018-03-01T18:22:15.886Z,31.02
2018-03-01T18:24:44.152Z,31.67
2018-03-01T18:27:12.456Z,32.05
2018-03-01T18:29:39.975Z,31.75
2018-03-01T18:32:07.495Z,32.95
2018-03-01T18:34:35.022Z,34.17
2018-03-01T18:37:03.282Z,32.15
2018-03-01T18:39:31.559Z,35.67
2018-03-01T18:41:59.834Z,35.15
2018-03-01T18:44:28.116Z,35.78
2018-03-01T18:46:56.377Z,33.67
2018-03-01T18:49:23.880Z,33.78
2018-03-01T18:51:51.375Z,33.50
2018-03-01T18:54:18.883Z,35.65
2018-03-01T18:56:46.384Z,34.15
2018-03-01T18:59:13.879Z,35.63
2018-03-01T19:01:42.156Z,36.58
2018-03-01T19:04:10.435Z,34.75
2018-03-01T19:06:38.707Z,35.22
2018-03-01T19:09:06.991Z,35.10
2018-03-01T19:11:35.423Z,36.03
2018-03-01T19:14:02.919Z,34.50
2018-03-01T19:16:30.444Z,35.45
2018-03-01T19:18:57.955Z,34.85
2018-03-01T19:21:26.218Z,33.75
2018-03-01T19:23:54.514Z,33.83
2018-03-01T19:26:22.759Z,34.83
2018-03-01T19:28:50.255Z,31.65
2018-03-01T19:31:17.751Z,33.60
2018-03-01T19:33:45.258Z,34.72
2018-03-01T19:36:13.527Z,33.25
2018-03-01T19:38:41.803Z,34.97
2018-03-01T19:41:10.067Z,32.15
2018-03-01T19:43:37.566Z,37.08
2018-03-01T19:46:05.063Z,35.53
2018-03-01T19:48:32.571Z,32.50
2018-03-01T19:51:00.071Z,35.35
2018-03-01T19:53:27.599Z,32.28
2018-03-01T19:55:55.100Z,31.65
2018-03-01T19:58:22.599Z,33.42
2018-03-01T20:00:50.167Z,34.25
2018-03-01T20:03:17.663Z,35.33
2018-03-01T20:05:45.163Z,34.40
2018-03-01T20:08:13.431Z,32.70
2018-03-01T20:10:41.699Z,30.52
2018-03-01T20:13:09.195Z,33.38
2018-03-01T20:15:36.698Z,35.35
2018-03-01T20:18:04.215Z,31.85
2018-03-01T20:20:31.732Z,33.70
2018-03-01T20:22:59.232Z,32.72
2018-03-01T20:25:26.728Z,34.65
2018-03-01T20:27:54.227Z,33.83
2018-03-01T20:30:22.509Z,35.30
2018-03-01T20:32:50.779Z,33.10
2018-03-01T20:35:19.044Z,33.75
2018-03-01T20:37:47.319Z,35.40
2018-03-01T20:40:15.608Z,33.90
2018-03-01T20:42:43.895Z,34.70
2018-03-01T20:45:11.412Z,34.08
2018-03-01T20:47:38.929Z,33.55
2018-03-01T20:50:06.473Z,31.95
2018-03-01T20:52:34.019Z,33.97
2018-03-01T20:55:01.489Z,33.13
2018-03-01T20:57:28.995Z,32.22
2018-03-01T20:59:56.505Z,34.10
2018-03-01T21:02:24.773Z,34.50
2018-03-01T21:04:53.059Z,33.38
2018-03-01T21:07:20.567Z,34.50
2018-03-01T21:09:48.078Z,34.47
2018-03-01T21:12:15.585Z,32.22
2018-03-01T21:14:43.101Z,33.45
2018-03-01T21:17:10.619Z,32.60
2018-03-01T21:19:38.127Z,34.47
2018-03-01T21:22:05.659Z,35.05
2018-03-01T21:24:33.927Z,32.03
2018-03-01T21:27:02.199Z,35.10
2018-03-01T21:29:30.480Z,33.58
2018-03-01T21:31:58.746Z,31.17
2018-03-01T21:34:26.272Z,32.70
2018-03-01T21:36:53.771Z,33.88
2018-03-01T21:39:22.048Z,32.38
2018-03-01T21:41:50.330Z,31.65
2018-03-01T21:44:18.592Z,34.47
2018-03-01T22:00:12.032Z,27.50
2018-03-01T22:02:39.548Z,31.48
2018-03-01T22:05:07.048Z,33.22
2018-03-01T22:07:34.548Z,32.28
2018-03-01T22:10:02.059Z,33.30
2018-03-01T22:12:29.583Z,34.63
2018-03-01T22:14:57.143Z,32.85
2018-03-01T22:17:24.648Z,31.92
2018-03-01T22:19:52.143Z,33.72
2018-03-01T22:22:19.647Z,33.22
2018-03-01T22:24:47.159Z,31.35
2018-03-01T22:27:14.713Z,30.45
2018-03-01T22:29:42.975Z,30.30
2018-03-01T22:32:11.291Z,31.67
2018-03-01T22:34:38.788Z,33.78
2018-03-01T22:37:06.304Z,31.40
2018-03-01T22:39:33.839Z,31.35
2018-03-01T22:42:02.103Z,31.95
2018-03-01T22:44:30.393Z,30.40
2018-03-01T22:46:58.660Z,33.03
2018-03-01T22:49:26.932Z,33.00
2018-03-01T22:51:55.265Z,32.35
2018-03-01T22:54:22.755Z,30.95
2018-03-01T22:56:50.271Z,29.65
2018-03-01T22:59:17.771Z,31.23
2018-03-01T23:01:45.275Z,30.85
2018-03-01T23:04:12.776Z,28.62
2018-03-01T23:06:40.271Z,29.90
2018-03-01T23:09:08.550Z,31.80
2018-03-01T23:11:36.852Z,38.00
2018-03-01T23:14:04.366Z,44.58
2018-03-01T23:16:31.884Z,49.80
2018-03-01T23:18:59.408Z,47.55
2018-03-01T23:21:26.927Z,38.33
2018-03-01T23:23:54.434Z,48.30
2018-03-01T23:26:21.953Z,46.58
2018-03-01T23:28:49.452Z,48.87
2018-03-01T23:31:16.955Z,45.55
2018-03-01T23:33:44.450Z,48.92
2018-03-01T23:36:12.727Z,48.08
2018-03-01T23:38:40.988Z,49.42
2018-03-01T23:41:08.486Z,50.47
2018-03-01T23:43:36.003Z,47.03
2018-03-01T23:46:04.289Z,49.50
2018-03-01T23:48:32.555Z,48.08
2018-03-01T23:51:00.056Z,48.80
2018-03-01T23:53:27.563Z,47.40
2018-03-01T23:55:55.074Z,47.05
2018-03-01T23:58:22.574Z,50.70
